LRCV - CRAIOVA

Compiled: 11:34:44 on 21/04/2018

Latest METAR/SPECI Reports

METAR LRCV 211130Z 27008KT 240V300 CAVOK 21/06 Q1020=

Previous reports

METAR LRCV 211100Z 31009KT 270V330 CAVOK 21/05 Q1020=
METAR LRCV 211030Z 24006KT 200V290 CAVOK 20/05 Q1021=
METAR LRCV 211000Z VRB03KT CAVOK 20/05 Q1021=
METAR LRCV 210930Z VRB05KT CAVOK 19/05 Q1022=

Latest TAF report

TAF LRCV 211100Z 2112/2121 27010KT CAVOK BECMG 2116/2118 VRB04KT=

Valid WARNINGS

No valid warnings for LRCV